Hollis, Illinois
Current Conditions -  °F | °C
As of 10:54 AM on Friday 31 Oct 2014 (Local Time) from KPIA Reporting Station
Broken Clouds Broken Clouds  
Wind Chill: 32°   Ceiling: 3600
Heat Index: 40°   Visibility: 10mi
Dew Point: 24°   Wind: 15mph
Humidity: 53%   Direction: 360°N
Pressure: 30.26"   Gusts: 26mph
Location:  40.6465°N, 89.6859°W
Report Text: KPIA 311554Z 36013G23KT 10SM BKN036 04/M04 A3026 RMK AO2 PK WND 35029/1532 SLP252 T00441044
Loading
Personal Weather Stations






























Interactive Weather Map New forecast layout! Learn more

10-Day Weather Forecast

Advertisements
Track Severe Weather on mobile